Portada
METAR-TAF:

METAR-TAF

Aeroports :

Aizawl, Índia

latitud: 23-50-18N, longitud: 92-37-13E, altitud: 405 m

Observació

L'informe es va fer fa 9 hores i 57 minuts, a les 11:00 UTC
Vent 5 kt del Nord
Temperatura 20°C
Humitat 68%
Pressió 1016 hPa
Visibilitat: 3500 m
Escasses núvols a una alçada de 10000 ft
calitja

METAR: VELP 221100Z 01005KT 3500 HZ FEW100 20/14 Q1016 NOSIG

Hora: 02:27 (20:57 UTC)

Pronòstic

L'informe es va fer fa 12 hores i 57 minuts, a les 08:00 UTC
Pronòstic vàlid del 22 a les 09 UTC al 22 a les 18 UTC
Vent 3 kt del Nord-Est
Visibilitat: 5000 m
calitja
Evolucionant progressivament
l' 22 a les 15 UTC al 22 a les 17 UTC
Visibilitat: 3000 m
boirina

TAF: VELP 220800Z 2209/2218 04003KT 5000 HZ NSC BECMG 2215/2217 3000 BR

Observacions i pronòstics meteorològics de més de 4000 aeroports (METAR i TAF).

Les estacions disponibles són els punts grocs i vermells al mapa.

Posi el ratolí al punt desitjat per veure el nom de l'estació.

Feu clic per veure les observacions i els pronòstics meteorològics.

Per canviar el mapa: feu clic els botons verds amb una creu de color negre per apropar; al botó verd amb un guió per allunyar la imatge; o en les fletxes verdes per a mapes adjacents.


METAR-TAF: